Date,TemperatureHighF,TemperatureAvgF,TemperatureLowF,DewpointHighF,DewpointAvgF,DewpointLowF,HumidityHigh,HumidityAvg,HumidityLow,PressureMaxIn,PressureMinIn,WindSpeedMaxMPH,WindSpeedAvgMPH,GustSpeedMaxMPH,PrecipitationSumIn
2012-8-22,85.4,83.3,80.8,-99.9,-99.9,-99.9,0,0,100,19.99,19.98,10,4,10,0.00
2012-8-23,80.5,75.1,71.1,-99.9,-99.9,-99.9,0,0,100,19.99,19.99,8,2,8,0.00
2012-8-24,81.5,75.2,69.8,-99.9,-99.9,-99.9,0,0,100,19.99,19.98,12,4,12,0.00
2012-8-25,86.5,75.4,66.9,-99.9,-99.9,-99.9,0,0,100,19.99,19.98,12,3,12,0.00
2012-8-26,84.7,76.7,67.8,-99.9,-99.9,-99.9,0,0,100,19.99,19.99,17,4,17,0.00
2012-8-27,83.2,78.8,75.9,-99.9,-99.9,-99.9,0,0,100,19.99,19.98,12,4,14,0.00
2012-8-28,81.4,78.3,75.2,-99.9,-99.9,-99.9,0,0,100,19.99,19.98,16,2,16,0.00
2012-8-29,86.3,80.9,77.6,-99.9,-99.9,-99.9,0,0,100,19.99,19.99,7,4,7,0.00
2012-8-30,73.2,73.2,73.2,-99.9,-99.9,-99.9,0,0,100,0.00,40.00,0,0,0,0.00
2012-9-4,84.9,84.9,84.9,-99.9,-99.9,-99.9,0,0,100,0.00,40.00,0,0,0,0.00
2012-9-5,87.8,81.7,80.5,-99.9,-99.9,-99.9,0,0,100,19.99,19.99,12,5,14,0.00
2012-9-6,92.0,83.1,78.0,-99.9,-99.9,-99.9,0,0,100,19.99,19.98,8,3,12,0.00
2012-9-7,89.8,80.6,73.2,-99.9,-99.9,-99.9,0,0,100,19.99,19.98,11,2,11,0.00
2012-9-8,86.1,80.7,78.6,-99.9,-99.9,-99.9,0,0,100,19.99,19.99,14,5,14,0.00
2012-9-9,78.9,78.9,78.9,-99.9,-99.9,-99.9,0,0,100,0.00,40.00,4,4,5,0.00
2012-9-10,62.2,62.2,62.2,-99.9,-99.9,-99.9,0,0,100,0.00,40.00,0,0,0,0.00
2012-9-11,77.3,73.2,65.0,-99.9,-99.9,-99.9,0,0,100,19.99,19.99,11,5,12,0.00
2012-9-12,65.7,65.7,65.7,-99.9,-99.9,-99.9,0,0,100,0.00,40.00,2,2,3,0.00
2012-9-13,81.8,77.7,68.4,-99.9,-99.9,-99.9,0,0,100,19.99,19.99,22,7,23,0.00
2012-9-14,84.7,75.3,67.7,-99.9,-99.9,-99.9,0,0,100,19.98,19.98,13,4,13,0.00
2012-9-15,85.2,75.8,67.5,-99.9,-99.9,-99.9,0,0,100,19.98,19.98,13,3,13,0.00
2012-9-16,83.2,76.9,69.0,-99.9,-99.9,-99.9,0,0,100,19.99,19.99,12,3,12,0.00
2012-9-17,85.3,78.0,70.4,-99.9,-99.9,-99.9,0,0,100,19.99,19.98,17,4,17,0.00
2012-9-18,84.6,80.3,77.6,-99.9,-99.9,-99.9,0,0,100,19.99,19.99,18,7,18,0.00
2012-9-19,84.8,75.6,68.1,-99.9,-99.9,-99.9,0,0,100,19.99,19.99,11,4,11,0.00
2012-9-20,79.6,71.2,65.9,-99.9,-99.9,-99.9,0,0,100,19.99,19.99,15,4,15,0.00
2012-9-21,80.5,73.3,64.9,-99.9,-99.9,-99.9,0,0,100,19.99,19.99,14,3,14,0.00
2012-9-22,86.2,75.5,67.8,-99.9,-99.9,-99.9,0,0,100,19.99,19.99,11,2,11,0.00
2012-9-23,80.9,75.4,64.6,-99.9,-99.9,-99.9,0,0,100,19.99,19.98,12,3,12,0.00
2012-9-24,77.2,65.3,59.5,-99.9,-99.9,-99.9,0,0,100,19.98,19.98,18,3,18,0.00
2012-9-25,79.4,74.4,65.7,-99.9,-99.9,-99.9,0,0,100,19.99,19.98,14,5,14,0.00
2012-9-26,81.8,73.4,63.9,-99.9,-99.9,-99.9,0,0,100,19.98,19.98,16,4,16,0.00
2012-9-27,85.9,75.6,66.5,-99.9,-99.9,-99.9,0,0,100,19.99,19.98,18,4,18,0.00
2012-9-28,87.7,76.1,67.0,-99.9,-99.9,-99.9,0,0,100,19.99,19.99,10,2,10,0.00
2012-9-29,87.0,76.8,69.8,-99.9,-99.9,-99.9,0,0,100,19.99,19.98,9,2,9,0.00
2012-9-30,78.8,74.5,72.0,-99.9,-99.9,-99.9,0,0,100,19.99,19.98,7,2,7,0.00
2012-10-1,83.4,76.4,73.1,-99.9,-99.9,-99.9,0,0,100,19.99,19.98,10,2,10,0.00
2012-10-3,85.6,80.6,75.2,-99.9,-99.9,-99.9,0,0,100,19.98,19.98,7,2,7,0.00
2012-10-4,84.6,76.5,70.7,-99.9,-99.9,-99.9,0,0,100,19.99,19.99,6,1,6,0.00
2012-10-5,82.2,75.0,70.1,-99.9,-99.9,-99.9,0,0,100,19.99,19.99,14,3,14,0.00
2012-10-6,86.5,75.8,67.7,-99.9,-99.9,-99.9,0,0,100,19.99,19.98,11,2,11,0.00
2012-10-7,85.9,77.7,72.8,-99.9,-99.9,-99.9,0,0,100,19.99,19.99,14,3,14,0.00
2012-10-8,74.3,63.1,54.2,-99.9,-99.9,-99.9,0,0,100,19.99,19.98,18,5,18,0.00
2012-10-9,64.9,57.3,52.9,-99.9,-99.9,-99.9,0,0,100,19.98,19.98,17,5,17,0.00
2012-10-10,77.2,61.9,50.7,-99.9,-99.9,-99.9,0,0,100,19.99,19.98,12,2,12,0.00
2012-10-11,71.8,63.6,57.2,-99.9,-99.9,-99.9,0,0,100,19.99,19.98,13,4,13,0.00
2012-10-12,77.4,65.7,54.4,-99.9,-99.9,-99.9,0,0,100,19.99,19.98,12,2,12,0.00
2012-10-13,74.2,66.7,59.2,-99.9,-99.9,-99.9,0,0,100,19.99,19.99,21,6,21,0.00
2012-10-14,79.9,70.0,58.8,-99.9,-99.9,-99.9,0,0,100,19.98,19.98,15,4,15,0.00
2012-10-15,81.5,74.6,68.0,-99.9,-99.9,-99.9,0,0,100,19.99,19.98,10,3,10,0.00
2012-10-16,73.6,63.9,56.2,-99.9,-99.9,-99.9,0,0,100,19.99,19.98,11,4,11,0.00
2012-10-17,72.4,63.6,55.4,-99.9,-99.9,-99.9,0,0,100,19.99,19.99,11,2,11,0.00
2012-10-18,78.6,70.8,61.9,-99.9,-99.9,-99.9,0,0,100,19.99,19.98,11,3,11,0.00
2012-10-19,79.1,74.0,68.5,-99.9,-99.9,-99.9,0,0,100,19.98,19.98,15,4,15,0.00
2012-10-20,79.2,79.2,79.2,-99.9,-99.9,-99.9,0,0,100,0.00,40.00,15,15,0,0.00
2012-10-21,79.2,79.2,79.2,-99.9,-99.9,-99.9,0,0,100,0.00,40.00,15,15,0,0.00
2012-10-22,79.2,79.2,79.2,-99.9,-99.9,-99.9,0,0,100,0.00,40.00,15,15,0,0.00
2012-10-23,79.2,79.2,79.2,-99.9,-99.9,-99.9,0,0,100,0.00,40.00,15,15,0,0.00
2012-10-24,79.2,79.2,79.2,-99.9,-99.9,-99.9,0,0,100,0.00,40.00,15,15,0,0.00
2012-10-25,79.5,79.1,78.2,-99.9,-99.9,-99.9,0,0,100,0.00,40.00,15,14,29,0.47
2012-10-26,78.3,71.5,66.9,-99.9,-99.9,-99.9,0,0,100,0.00,40.00,10,7,0,0.00
2012-10-27,69.4,66.5,64.7,-99.9,-99.9,-99.9,0,0,100,0.00,40.00,10,8,0,0.46
2012-10-28,71.8,65.9,62.5,-99.9,-99.9,-99.9,0,0,100,0.00,40.00,10,7,0,0.00
2012-10-29,62.9,56.9,50.2,-99.9,-99.9,-99.9,0,0,100,0.00,40.00,22,9,29,0.00
2012-10-30,59.0,55.1,50.4,-99.9,-99.9,-99.9,0,0,100,19.99,19.98,18,8,24,0.00
2012-10-31,66.6,56.1,47.6,-99.9,-99.9,-99.9,0,0,100,19.99,19.99,13,6,13,0.00
2012-11-1,65.1,56.5,49.8,-99.9,-99.9,-99.9,0,0,100,19.99,19.99,15,5,15,0.00
2012-11-2,73.1,58.9,43.6,-99.9,-99.9,-99.9,0,0,100,19.98,19.98,11,4,11,0.00
2012-11-3,66.4,59.1,49.7,-99.9,-99.9,-99.9,0,0,100,19.98,19.98,11,4,11,0.00
2012-11-4,80.1,68.3,62.0,-99.9,-99.9,-99.9,0,0,100,19.99,19.98,11,3,11,0.00
2012-11-6,55.2,49.1,43.1,-99.9,-99.9,-99.9,0,0,100,19.99,19.99,13,4,15,0.00
2012-11-7,55.7,46.6,39.9,-99.9,-99.9,-99.9,0,0,100,19.99,19.98,13,4,14,0.00
2012-11-8,64.3,50.7,40.7,-99.9,-99.9,-99.9,0,0,100,19.99,19.98,14,3,14,0.00
2012-11-9,64.4,52.2,40.5,-99.9,-99.9,-99.9,0,0,100,19.99,19.98,9,2,9,0.00
2012-11-10,72.0,56.3,45.1,-99.9,-99.9,-99.9,0,0,100,19.98,19.98,11,1,11,0.00
2012-11-11,73.5,63.3,51.0,-99.9,-99.9,-99.9,0,0,100,19.99,19.98,16,4,16,0.00
2012-11-12,77.8,68.5,61.4,-99.9,-99.9,-99.9,0,0,100,19.98,19.98,12,2,12,0.00
2012-11-13,77.8,64.1,52.3,-99.9,-99.9,-99.9,0,0,100,19.99,19.98,16,3,16,0.00
2012-11-14,52.4,50.0,47.2,-99.9,-99.9,-99.9,0,0,100,19.98,19.98,14,6,14,0.00
2012-11-15,51.5,47.5,43.7,-99.9,-99.9,-99.9,0,0,100,19.99,19.98,14,5,14,0.00
2012-11-16,54.6,50.4,45.8,-99.9,-99.9,-99.9,0,0,100,19.99,19.99,12,4,13,0.00
2012-11-17,54.6,50.2,43.0,-99.9,-99.9,-99.9,0,0,100,19.99,19.99,15,6,18,0.00
2012-11-18,53.8,51.6,48.7,-99.9,-99.9,-99.9,0,0,100,19.99,19.99,19,8,19,0.00
2012-11-19,60.7,55.9,52.2,-99.9,-99.9,-99.9,0,0,100,19.99,19.99,19,7,19,0.00
2012-11-20,61.3,53.5,48.2,-99.9,-99.9,-99.9,0,0,100,19.99,19.99,13,4,13,0.00
2012-11-21,62.4,53.1,45.2,-99.9,-99.9,-99.9,0,0,100,19.99,19.98,18,4,18,0.00
2012-11-22,63.5,51.8,43.0,-99.9,-99.9,-99.9,0,0,100,19.99,19.99,16,5,16,0.00
2012-11-23,69.2,53.6,38.0,-99.9,-99.9,-99.9,0,0,100,19.99,19.99,9,2,9,0.00
2012-11-24,62.8,53.3,41.7,-99.9,-99.9,-99.9,0,0,100,19.99,19.98,10,3,12,0.00
2012-11-25,57.1,46.2,36.0,-99.9,-99.9,-99.9,0,0,100,19.99,19.99,9,3,9,0.00
2012-11-26,66.4,52.1,39.1,-99.9,-99.9,-99.9,0,0,100,19.99,19.98,9,1,9,0.00
2012-11-27,57.3,51.5,46.1,-99.9,-99.9,-99.9,0,0,100,19.99,19.98,11,1,11,0.00
2012-11-28,60.2,51.0,40.5,-99.9,-99.9,-99.9,0,0,100,20.00,19.99,12,3,12,0.00
2012-11-29,59.7,48.2,37.5,-99.9,-99.9,-99.9,0,0,100,19.99,19.99,18,4,18,0.00
2012-11-30,65.5,54.6,44.7,-99.9,-99.9,-99.9,0,0,100,19.99,19.99,13,4,13,0.00
2012-12-1,67.4,60.6,52.3,-99.9,-99.9,-99.9,0,0,100,19.99,19.99,18,4,18,0.00
2012-12-2,70.8,62.7,56.5,-99.9,-99.9,-99.9,0,0,100,19.99,19.99,11,3,11,0.00
2012-12-3,75.6,62.0,53.4,-99.9,-99.9,-99.9,0,0,100,19.99,19.99,7,1,7,0.00
2012-12-4,76.1,65.1,60.4,-99.9,-99.9,-99.9,0,0,100,19.98,19.98,7,1,7,0.00
2012-12-5,74.2,62.6,53.1,-99.9,-99.9,-99.9,0,0,100,19.99,19.98,6,1,6,0.00
2012-12-6,61.7,57.3,52.4,-99.9,-99.9,-99.9,0,0,100,19.99,19.98,15,6,15,0.00
2012-12-7,62.9,55.5,52.1,-99.9,-99.9,-99.9,0,0,100,19.99,19.98,10,4,10,0.00
2012-12-8,55.4,53.4,51.4,-99.9,-99.9,-99.9,0,0,100,19.99,19.99,7,1,7,0.00
2012-12-10,70.3,66.4,63.0,-99.9,-99.9,-99.9,0,0,100,19.99,19.99,14,4,14,0.00
2012-12-11,72.9,66.0,60.5,-99.9,-99.9,-99.9,0,0,100,19.99,19.99,9,2,9,0.00
2012-12-12,60.8,54.2,45.9,-99.9,-99.9,-99.9,0,0,100,19.99,19.98,14,5,15,0.00
2012-12-13,48.7,45.3,42.5,-99.9,-99.9,-99.9,0,0,100,19.99,19.99,16,6,16,0.00
2012-12-14,61.4,49.8,41.3,-99.9,-99.9,-99.9,0,0,100,19.99,19.99,12,4,15,0.00
2012-12-19,71.5,61.1,52.2,-99.9,-99.9,-99.9,0,0,100,19.99,19.99,12,3,12,0.00
2012-12-20,71.8,59.5,44.0,-99.9,-99.9,-99.9,0,0,100,19.99,19.99,18,5,18,0.00
2012-12-21,57.8,48.0,43.4,-99.9,-99.9,-99.9,0,0,100,19.99,19.99,31,11,31,0.00
2012-12-22,57.8,46.0,37.0,-99.9,-99.9,-99.9,0,0,100,19.99,19.99,23,6,23,0.00
2012-12-23,59.3,48.4,35.8,-99.9,-99.9,-99.9,0,0,100,19.99,19.99,6,3,6,0.00
2012-12-24,62.9,55.8,48.8,-99.9,-99.9,-99.9,0,0,100,19.99,19.99,15,2,15,0.00
2012-12-25,60.3,56.3,53.0,-99.9,-99.9,-99.9,0,0,100,19.99,19.99,14,3,14,0.00
2012-12-26,67.4,59.0,43.3,-99.9,-99.9,-99.9,0,0,100,19.99,19.99,22,8,22,0.00
2012-12-27,55.9,45.4,38.2,-99.9,-99.9,-99.9,0,0,100,19.99,19.99,15,4,15,0.00
2012-12-28,55.7,47.0,36.2,-99.9,-99.9,-99.9,0,0,100,19.99,19.99,11,3,11,0.00
2012-12-29,65.6,53.4,43.0,-99.9,-99.9,-99.9,0,0,100,19.99,19.99,24,8,24,0.00
2012-12-30,51.9,41.7,33.9,-99.9,-99.9,-99.9,0,0,100,19.99,19.99,19,4,19,0.00
2012-12-31,60.1,45.1,29.5,-99.9,-99.9,-99.9,0,0,100,19.99,19.99,6,1,6,0.00
2013-1-1,65.2,57.1,50.1,-99.9,-99.9,-99.9,0,0,100,19.99,19.99,9,3,9,0.00